createdAt,value
2022-12-18T00:00:42.945Z,0.38
2022-12-18T00:05:49.798Z,0.28
2022-12-18T00:10:53.320Z,0.23
2022-12-18T00:16:03.622Z,0.14
2022-12-18T00:21:08.952Z,0.06
2022-12-18T00:26:13.736Z,0.04
2022-12-18T00:31:20.371Z,0.04
2022-12-18T00:36:25.695Z,-0.02
2022-12-18T00:41:46.818Z,-0.09
2022-12-18T00:46:51.690Z,-0.19
2022-12-18T00:51:57.829Z,-0.22
2022-12-18T00:57:01.241Z,-0.34
2022-12-18T01:02:06.152Z,-0.47
2022-12-18T01:07:09.622Z,-0.40
2022-12-18T01:12:13.206Z,-0.29
2022-12-18T01:17:17.984Z,-0.30
2022-12-18T01:22:21.383Z,-0.29
2022-12-18T01:27:24.853Z,-0.28
2022-12-18T01:32:31.809Z,-0.25
2022-12-18T01:37:35.197Z,-0.15
2022-12-18T01:42:40.007Z,-0.07
2022-12-18T01:47:47.701Z,-0.11
2022-12-18T01:52:54.225Z,-0.16
2022-12-18T01:58:00.214Z,-0.05
2022-12-18T02:03:05.179Z,-0.11
2022-12-18T02:08:13.006Z,-0.07
2022-12-18T02:13:22.398Z,-0.13
2022-12-18T02:18:30.747Z,-0.14
2022-12-18T02:23:47.168Z,-0.19
2022-12-18T02:28:55.651Z,-0.26
2022-12-18T02:34:02.593Z,-0.19
2022-12-18T02:39:11.656Z,-0.22
2022-12-18T02:44:22.243Z,-0.26
2022-12-18T02:49:34.345Z,-0.31
2022-12-18T02:54:47.619Z,-0.36
2022-12-18T02:59:59.018Z,-0.51
2022-12-18T03:05:07.528Z,-0.52
2022-12-18T03:10:14.154Z,-0.42
2022-12-18T03:15:21.777Z,-0.51
2022-12-18T03:20:33.937Z,-0.54
2022-12-18T03:25:40.603Z,-0.63
2022-12-18T03:30:47.831Z,-0.61
2022-12-18T03:35:51.873Z,-0.69
2022-12-18T03:41:01.315Z,-0.73
2022-12-18T03:46:11.821Z,-0.65
2022-12-18T03:51:19.760Z,-0.66
2022-12-18T03:56:27.693Z,-0.99
2022-12-18T04:01:36.023Z,-0.79
2022-12-18T04:06:40.551Z,-0.68
2022-12-18T04:11:48.121Z,-0.70
2022-12-18T04:16:54.642Z,-0.68
2022-12-18T04:22:03.786Z,-0.74
2022-12-18T04:27:13.593Z,-0.82
2022-12-18T04:32:22.667Z,-0.87
2022-12-18T04:37:26.815Z,-0.78
2022-12-18T04:42:30.354Z,-0.77
2022-12-18T04:47:35.117Z,-0.70
2022-12-18T04:52:39.653Z,-0.59
2022-12-18T04:57:43.188Z,-0.63
2022-12-18T05:02:47.986Z,-0.79
2022-12-18T05:07:51.574Z,-0.88
2022-12-18T05:13:01.285Z,-1.00
2022-12-18T05:18:06.908Z,-0.65
2022-12-18T05:23:10.355Z,-0.37
2022-12-18T05:28:13.783Z,-0.23
2022-12-18T05:33:18.586Z,-0.19
2022-12-18T05:38:22.561Z,-0.32
2022-12-18T05:43:27.009Z,-0.20
2022-12-18T05:48:31.822Z,-0.23
2022-12-18T05:53:35.743Z,-0.34
2022-12-18T05:58:39.581Z,-0.37
2022-12-18T06:03:45.102Z,-0.37
2022-12-18T06:08:49.326Z,-0.33
2022-12-18T06:13:57.819Z,-0.21
2022-12-18T06:19:05.370Z,0.03
2022-12-18T06:24:09.032Z,0.25
2022-12-18T06:29:12.532Z,0.38
2022-12-18T06:34:17.409Z,0.39
2022-12-18T06:39:20.877Z,0.37
2022-12-18T06:44:24.265Z,0.37
2022-12-18T06:49:30.782Z,0.49
2022-12-18T06:54:34.294Z,0.53
2022-12-18T06:59:37.698Z,0.58
2022-12-18T07:04:42.794Z,0.60
2022-12-18T07:09:46.225Z,0.59
2022-12-18T07:14:49.676Z,0.61
2022-12-18T07:19:54.511Z,0.50
2022-12-18T07:24:58.065Z,0.47
2022-12-18T07:30:01.404Z,0.52
2022-12-18T07:35:06.889Z,0.67
2022-12-18T07:40:11.632Z,0.74
2022-12-18T07:45:14.952Z,0.87
2022-12-18T07:50:19.959Z,0.85
2022-12-18T07:55:23.383Z,0.93
2022-12-18T08:00:26.794Z,1.09
2022-12-18T08:05:31.650Z,1.25
2022-12-18T08:10:35.089Z,1.26
2022-12-18T08:15:38.473Z,1.33
2022-12-18T08:20:46.212Z,1.35
2022-12-18T08:25:49.745Z,1.81
2022-12-18T08:30:54.028Z,2.07
2022-12-18T08:36:00.247Z,2.18
2022-12-18T08:41:04.717Z,2.37
2022-12-18T08:46:08.671Z,2.59
2022-12-18T08:51:13.664Z,2.88
2022-12-18T08:56:17.243Z,3.17
2022-12-18T09:01:20.989Z,3.33
2022-12-18T09:06:27.501Z,3.42
2022-12-18T09:11:31.433Z,3.60
2022-12-18T09:16:35.840Z,4.12
2022-12-18T09:21:46.103Z,4.28
2022-12-18T09:26:57.800Z,4.56
2022-12-18T09:32:01.573Z,4.71
2022-12-18T09:37:06.346Z,4.79
2022-12-18T09:42:15.151Z,5.22
2022-12-18T09:47:22.363Z,5.56
2022-12-18T09:52:30.760Z,5.79
2022-12-18T09:57:35.782Z,5.89
2022-12-18T10:02:39.643Z,6.24
2022-12-18T10:07:55.373Z,6.48
2022-12-18T10:13:05.500Z,6.77
2022-12-18T10:18:22.094Z,6.89
2022-12-18T10:23:30.546Z,7.16
2022-12-18T10:28:35.768Z,7.47
2022-12-18T10:33:39.370Z,7.45
2022-12-18T10:38:44.843Z,7.78
2022-12-18T10:43:48.330Z,7.95
2022-12-18T10:48:57.052Z,7.90
2022-12-18T10:54:03.496Z,7.90
2022-12-18T10:59:10.989Z,8.25
2022-12-18T11:04:19.458Z,8.02
2022-12-18T11:09:25.520Z,8.45
2022-12-18T11:14:30.748Z,8.36
2022-12-18T11:19:36.372Z,8.74
2022-12-18T11:24:41.511Z,8.81
2022-12-18T11:29:46.898Z,8.81
2022-12-18T11:34:57.350Z,8.87
2022-12-18T11:40:10.069Z,9.00
2022-12-18T11:45:27.004Z,9.13
2022-12-18T11:50:34.990Z,9.02
2022-12-18T11:55:43.885Z,9.39
2022-12-18T12:00:53.046Z,9.22
2022-12-18T12:06:04.771Z,8.88
2022-12-18T12:11:13.592Z,8.93
2022-12-18T12:16:19.938Z,8.69
2022-12-18T12:21:27.760Z,8.81
2022-12-18T12:26:37.308Z,8.84
2022-12-18T12:31:52.253Z,8.70
2022-12-18T12:37:06.338Z,8.66
2022-12-18T12:42:34.182Z,8.66
2022-12-18T12:47:40.478Z,8.34
2022-12-18T12:52:46.514Z,8.03
2022-12-18T12:58:00.092Z,7.51
2022-12-18T13:03:08.608Z,7.46
2022-12-18T13:08:14.007Z,7.22
2022-12-18T13:13:24.383Z,6.76
2022-12-18T13:18:30.031Z,7.20
2022-12-18T13:23:35.730Z,6.96
2022-12-18T13:28:57.844Z,7.18
2022-12-18T13:34:26.162Z,7.43
2022-12-18T13:39:35.901Z,7.13
2022-12-18T13:44:43.002Z,7.29
2022-12-18T13:49:46.605Z,7.03
2022-12-18T13:54:53.840Z,6.89
2022-12-18T13:59:59.610Z,6.81
2022-12-18T14:05:03.204Z,6.04
2022-12-18T14:10:47.680Z,6.14
2022-12-18T14:15:42.981Z,6.10
2022-12-18T14:20:52.972Z,6.05
2022-12-18T14:26:00.794Z,5.69
2022-12-18T14:31:19.740Z,5.95
2022-12-18T14:36:24.970Z,5.53
2022-12-18T14:41:28.814Z,5.45
2022-12-18T14:46:36.123Z,5.56
2022-12-18T14:51:39.551Z,5.49
2022-12-18T14:56:46.643Z,5.29
2022-12-18T15:02:05.119Z,5.26
2022-12-18T15:07:16.956Z,5.11
2022-12-18T15:12:28.605Z,5.25
2022-12-18T15:17:33.704Z,4.80
2022-12-18T15:22:38.051Z,4.92
2022-12-18T15:27:50.470Z,4.96
2022-12-18T15:33:18.957Z,5.16
2022-12-18T15:38:22.298Z,5.35
2022-12-18T15:43:38.881Z,5.31
2022-12-18T15:48:45.593Z,5.32
2022-12-18T15:53:49.664Z,5.13
2022-12-18T15:58:53.028Z,5.16
2022-12-18T16:03:58.416Z,5.21
2022-12-18T16:09:01.909Z,4.93
2022-12-18T16:14:06.674Z,4.92
2022-12-18T16:19:12.068Z,4.74
2022-12-18T16:24:17.102Z,4.90
2022-12-18T16:29:27.821Z,4.78
2022-12-18T16:34:36.063Z,4.84
2022-12-18T16:39:40.560Z,4.77
2022-12-18T16:44:44.595Z,4.78
2022-12-18T16:49:51.753Z,4.75
2022-12-18T16:54:55.352Z,5.06
2022-12-18T17:00:04.711Z,5.01
2022-12-18T17:05:10.696Z,5.09
2022-12-18T17:10:15.347Z,4.85
2022-12-18T17:15:29.594Z,5.08
2022-12-18T17:20:39.563Z,5.33
2022-12-18T17:25:43.097Z,5.42
2022-12-18T17:30:46.493Z,5.41
2022-12-18T17:35:51.559Z,5.37
2022-12-18T17:40:54.997Z,5.34
2022-12-18T17:45:58.510Z,5.27
2022-12-18T17:51:05.733Z,5.44
2022-12-18T17:56:11.297Z,5.40
2022-12-18T18:01:16.224Z,5.45
2022-12-18T18:06:21.178Z,5.60
2022-12-18T18:11:43.280Z,5.72
2022-12-18T18:16:48.814Z,5.84
2022-12-18T18:21:54.628Z,5.85
2022-12-18T18:26:59.469Z,6.15
2022-12-18T18:32:03.226Z,6.09
2022-12-18T18:37:08.261Z,6.23
2022-12-18T18:42:11.862Z,6.17
2022-12-18T18:47:15.266Z,6.32
2022-12-18T18:52:20.026Z,6.30
2022-12-18T18:57:27.456Z,6.50
2022-12-18T19:02:33.576Z,6.48
2022-12-18T19:07:38.451Z,6.59
2022-12-18T19:12:59.759Z,6.54
2022-12-18T19:18:03.284Z,6.78
2022-12-18T19:23:08.131Z,6.69
2022-12-18T19:28:14.419Z,6.87
2022-12-18T19:33:42.360Z,6.88
2022-12-18T19:38:48.016Z,6.95
2022-12-18T19:43:52.218Z,7.04
2022-12-18T19:48:55.671Z,6.39
2022-12-18T19:54:01.981Z,6.82
2022-12-18T19:59:05.779Z,7.01
2022-12-18T20:04:09.369Z,7.16
2022-12-18T20:09:14.312Z,7.24
2022-12-18T20:14:22.703Z,7.29
2022-12-18T20:19:27.792Z,7.10
2022-12-18T20:24:32.845Z,7.47
2022-12-18T20:29:36.376Z,7.51
2022-12-18T20:34:39.762Z,7.45
2022-12-18T20:39:45.680Z,7.49
2022-12-18T20:44:49.788Z,7.24
2022-12-18T20:49:53.160Z,7.62
2022-12-18T20:54:58.602Z,7.59
2022-12-18T21:00:04.325Z,7.72
2022-12-18T21:05:08.891Z,8.03
2022-12-18T21:10:13.708Z,8.08
2022-12-18T21:15:17.226Z,7.28
2022-12-18T21:20:20.725Z,7.59
2022-12-18T21:25:25.736Z,7.82
2022-12-18T21:30:29.182Z,7.87
2022-12-18T21:35:32.657Z,7.81
2022-12-18T21:40:39.923Z,7.82
2022-12-18T21:45:43.625Z,7.87
2022-12-18T21:50:47.099Z,7.43
2022-12-18T21:55:58.648Z,7.04
2022-12-18T22:01:02.198Z,7.20
2022-12-18T22:06:09.632Z,7.36
2022-12-18T22:11:14.739Z,7.64
2022-12-18T22:16:19.749Z,7.64
2022-12-18T22:21:29.071Z,7.56
2022-12-18T22:26:39.999Z,7.76
2022-12-18T22:31:44.168Z,7.75
2022-12-18T22:36:48.773Z,7.93
2022-12-18T22:41:53.640Z,7.81
2022-12-18T22:47:05.510Z,8.03
2022-12-18T22:52:10.705Z,7.62
2022-12-18T22:57:15.555Z,7.24
2022-12-18T23:02:19.928Z,7.82
2022-12-18T23:07:23.629Z,7.67
2022-12-18T23:12:28.532Z,7.69
2022-12-18T23:17:32.333Z,7.95
2022-12-18T23:22:35.883Z,7.32
2022-12-18T23:27:40.721Z,7.58
2022-12-18T23:32:44.142Z,7.97
2022-12-18T23:38:03.936Z,7.69
2022-12-18T23:43:09.037Z,8.02
2022-12-18T23:48:12.652Z,8.19
2022-12-18T23:53:16.189Z,8.06
2022-12-18T23:58:22.353Z,7.85
